Time;durP1;ratioP1;P1;durP2;ratioP2;P2;SDS_P1;SDS_P2;PMS_P1;PMS_P2;Temp;Humidity;BMP_temperature;BMP_pressure;BME280_temperature;BME280_humidity;BME280_pressure;Samples;Min_cycle;Max_cycle;Signal;HPM_P1;HPM_P2
2022/07/31 04:01:29;;;;;;;7.53;6.93;;;11.30;96.30;;;;;;5505322;23;20925;-76
2022/07/31 04:03:58;;;;;;;6.50;5.90;;;11.60;96.30;;;;;;4993135;28;20425;-76
2022/07/31 04:06:24;;;;;;;6.17;5.67;;;11.90;96.30;;;;;;5008249;28;20539;-76
2022/07/31 04:08:49;;;;;;;7.27;5.43;;;12.30;96.30;;;;;;5011165;28;20408;-76
2022/07/31 04:11:15;;;;;;;9.53;4.97;;;12.60;96.30;;;;;;5009666;28;20201;-76
2022/07/31 04:13:41;;;;;;;5.23;4.60;;;13.00;96.30;;;;;;5014074;28;20208;-77
2022/07/31 04:16:06;;;;;;;7.03;6.37;;;13.50;96.30;;;;;;5018945;28;20172;-76
2022/07/31 04:18:33;;;;;;;6.70;5.27;;;13.80;96.30;;;;;;5017760;28;20185;-76
2022/07/31 04:31:12;;;;;;;3.87;3.60;;;15.30;96.30;;;;;;4952290;29;20475;-77
2022/07/31 04:33:38;;;;;;;3.77;3.47;;;15.70;96.30;;;;;;4952542;29;20833;-77
2022/07/31 04:36:03;;;;;;;3.67;3.37;;;16.20;96.30;;;;;;4967305;28;20202;-77
2022/07/31 04:38:29;;;;;;;2.70;2.53;;;16.30;96.30;;;;;;4971315;28;20707;-77
2022/07/31 04:40:54;;;;;;;3.50;3.20;;;16.90;96.30;;;;;;4962650;28;20202;-77
2022/07/31 04:43:20;;;;;;;3.93;2.93;;;17.20;96.30;;;;;;4953762;29;20171;-77
2022/07/31 04:45:45;;;;;;;3.40;2.97;;;17.30;96.30;;;;;;4953857;29;20214;-77
2022/07/31 04:48:11;;;;;;;2.73;2.53;;;17.50;96.30;;;;;;4953118;29;20182;-77
2022/07/31 04:50:36;;;;;;;3.43;3.23;;;17.70;96.30;;;;;;4953875;29;20206;-77
2022/07/31 04:53:02;;;;;;;5.00;2.73;;;18.20;96.30;;;;;;4953838;29;20183;-77
2022/07/31 04:55:28;;;;;;;3.07;2.87;;;18.30;96.30;;;;;;4953460;28;20198;-77
2022/07/31 04:57:54;;;;;;;2.70;2.30;;;18.40;96.30;;;;;;4953058;29;20429;-77
2022/07/31 05:00:19;;;;;;;2.90;2.70;;;18.60;96.30;;;;;;4953573;29;20238;-77
2022/07/31 05:02:45;;;;;;;2.60;2.40;;;19.40;96.30;;;;;;4953614;29;20206;-77
2022/07/31 05:05:10;;;;;;;4.80;2.70;;;19.20;96.30;;;;;;4953449;29;20210;-78
2022/07/31 05:07:36;;;;;;;3.63;2.60;;;19.40;96.30;;;;;;4953618;29;20214;-77
2022/07/31 05:10:02;;;;;;;3.67;2.60;;;19.80;96.30;;;;;;4952834;29;20233;-77
2022/07/31 05:12:28;;;;;;;5.93;2.60;;;20.00;96.30;;;;;;4953726;28;20639;-77
2022/07/31 05:14:53;;;;;;;4.37;2.77;;;20.70;96.30;;;;;;4953374;29;20468;-77
2022/07/31 05:17:19;;;;;;;4.90;2.50;;;20.90;96.30;;;;;;4951980;29;20190;-77
2022/07/31 05:19:44;;;;;;;2.80;2.60;;;21.30;96.30;;;;;;4952990;29;20179;-77
2022/07/31 05:22:10;;;;;;;2.60;2.40;;;22.00;96.30;;;;;;4952430;29;20230;-77
2022/07/31 05:24:36;;;;;;;3.80;2.40;;;21.60;96.30;;;;;;4953909;29;20191;-79
2022/07/31 05:27:02;;;;;;;2.50;2.30;;;21.40;96.30;;;;;;4957004;28;20187;-79
2022/07/31 05:29:28;;;;;;;5.67;2.77;;;21.10;96.30;;;;;;4955815;29;20214;-79
2022/07/31 05:31:54;;;;;;;2.80;2.50;;;20.70;96.30;;;;;;4957951;28;20537;-79
2022/07/31 05:34:20;;;;;;;3.20;2.90;;;20.10;96.30;;;;;;4958030;28;20201;-79
2022/07/31 05:36:45;;;;;;;2.50;2.20;;;19.30;96.30;;;;;;4957238;29;20459;-79
2022/07/31 05:39:11;;;;;;;3.77;2.80;;;19.10;96.30;;;;;;4954588;29;20179;-79
2022/07/31 05:41:37;;;;;;;7.37;3.00;;;19.10;96.30;;;;;;4957328;29;20257;-79
2022/07/31 05:44:03;;;;;;;4.83;2.73;;;20.30;96.30;;;;;;4957761;28;20182;-80
2022/07/31 05:46:28;;;;;;;2.90;2.47;;;21.40;96.30;;;;;;4959535;28;20611;-79
2022/07/31 05:48:54;;;;;;;4.70;3.00;;;22.80;96.30;;;;;;4957837;29;20492;-79
2022/07/31 05:51:19;;;;;;;5.27;2.90;;;23.10;96.30;;;;;;4962167;28;20257;-77
2022/07/31 05:53:45;;;;;;;13.83;3.70;;;23.20;96.30;;;;;;4982784;28;20213;-78
2022/07/31 05:56:11;;;;;;;5.03;2.70;;;23.50;96.30;;;;;;4958877;29;20178;-79
2022/07/31 05:58:36;;;;;;;3.03;2.80;;;24.00;96.30;;;;;;4972904;28;20185;-80
2022/07/31 06:01:03;;;;;;;6.53;2.90;;;24.10;96.30;;;;;;4961046;28;20201;-79
2022/07/31 06:03:28;;;;;;;3.20;2.90;;;24.10;96.30;;;;;;4971613;28;20657;-80
2022/07/31 06:05:55;;;;;;;2.80;2.30;;;24.40;96.30;;;;;;4967408;28;20457;-80
2022/07/31 06:08:21;;;;;;;5.20;3.27;;;24.70;96.30;;;;;;4962948;28;20302;-80
2022/07/31 06:10:47;;;;;;;3.07;2.57;;;25.80;92.10;;;;;;4966408;28;20489;-80
2022/07/31 06:13:13;;;;;;;5.47;2.37;;;25.30;93.90;;;;;;4972619;28;20948;-79
2022/07/31 06:15:40;;;;;;;4.27;2.50;;;25.50;94.30;;;;;;4961605;28;20480;-77
2022/07/31 06:18:06;;;;;;;3.10;2.77;;;25.20;93.70;;;;;;4959530;28;20669;-79
2022/07/31 06:20:31;;;;;;;3.93;2.67;;;25.90;94.10;;;;;;4959149;29;20434;-79
2022/07/31 06:22:57;;;;;;;6.90;2.60;;;25.80;92.10;;;;;;4956208;29;20272;-77
2022/07/31 06:25:23;;;;;;;3.37;2.77;;;25.40;93.70;;;;;;4955653;29;20171;-77
2022/07/31 06:27:48;;;;;;;4.07;3.10;;;25.40;93.40;;;;;;4955882;28;20174;-76
2022/07/31 06:30:14;;;;;;;3.93;2.97;;;25.20;94.40;;;;;;4955627;29;20268;-77
2022/07/31 06:32:39;;;;;;;4.57;3.17;;;26.10;93.50;;;;;;4955721;29;20193;-78
2022/07/31 06:35:06;;;;;;;3.20;2.67;;;25.70;93.00;;;;;;4955779;29;20301;-77
2022/07/31 06:37:32;;;;;;;3.80;3.33;;;25.60;93.50;;;;;;4955447;28;20170;-78
2022/07/31 06:39:57;;;;;;;3.27;2.97;;;25.30;95.60;;;;;;4958298;28;20423;-77
2022/07/31 06:42:24;;;;;;;12.50;3.20;;;25.20;94.90;;;;;;4975163;28;20198;-77
2022/07/31 06:44:50;;;;;;;3.50;3.20;;;25.10;96.10;;;;;;4974816;28;20189;-77
2022/07/31 06:47:17;;;;;;;4.20;3.40;;;25.30;94.70;;;;;;4974777;28;20413;-77
2022/07/31 06:49:43;;;;;;;3.43;3.07;;;26.00;94.10;;;;;;4974055;28;20182;-77
2022/07/31 06:52:09;;;;;;;5.77;3.13;;;26.40;93.50;;;;;;4974768;28;20840;-77
2022/07/31 06:54:34;;;;;;;4.23;2.93;;;26.40;92.40;;;;;;4964888;28;20202;-77
2022/07/31 06:57:00;;;;;;;3.00;2.77;;;25.90;91.90;;;;;;4954983;29;20220;-77
2022/07/31 06:59:25;;;;;;;4.33;2.50;;;26.60;94.20;;;;;;4954841;29;20174;-78
2022/07/31 07:01:51;;;;;;;4.60;3.03;;;27.20;90.30;;;;;;4953946;29;20548;-78
2022/07/31 07:04:16;;;;;;;7.20;2.70;;;26.60;92.50;;;;;;4955215;29;20261;-76
2022/07/31 07:06:41;;;;;;;3.37;2.97;;;27.20;89.40;;;;;;4955361;29;20664;-76
2022/07/31 07:09:07;;;;;;;8.27;3.50;;;27.50;89.70;;;;;;4963679;28;20242;-77
2022/07/31 07:11:33;;;;;;;7.33;2.90;;;27.40;90.60;;;;;;4955111;29;20249;-76
2022/07/31 07:13:58;;;;;;;5.60;3.13;;;27.40;91.10;;;;;;4952537;29;20562;-76
2022/07/31 07:16:24;;;;;;;3.73;2.87;;;26.50;92.30;;;;;;4953956;29;20225;-77
2022/07/31 07:18:49;;;;;;;3.50;3.20;;;25.20;94.90;;;;;;4953124;29;20262;-78
2022/07/31 07:21:15;;;;;;;4.40;3.07;;;24.90;96.30;;;;;;4969356;28;20190;-77
2022/07/31 07:23:40;;;;;;;5.87;3.33;;;24.50;96.30;;;;;;4973830;28;20566;-76
2022/07/31 07:26:06;;;;;;;4.77;3.00;;;24.60;96.30;;;;;;4951758;28;20616;-76
2022/07/31 07:28:32;;;;;;;3.47;3.17;;;25.00;96.30;;;;;;4952406;28;20182;-76
2022/07/31 07:30:58;;;;;;;4.77;3.40;;;25.30;96.30;;;;;;4954491;28;20697;-76
2022/07/31 07:33:23;;;;;;;4.43;3.07;;;26.10;94.20;;;;;;4954540;29;20422;-75
2022/07/31 07:35:49;;;;;;;5.50;2.97;;;26.70;93.80;;;;;;4954385;29;20214;-76
2022/07/31 07:38:14;;;;;;;7.90;3.00;;;28.10;91.60;;;;;;4955249;29;20185;-76
2022/07/31 07:40:40;;;;;;;5.63;3.13;;;28.90;86.40;;;;;;4963570;28;20205;-76
2022/07/31 07:43:05;;;;;;;9.93;3.70;;;29.40;88.20;;;;;;4975432;28;20178;-76
2022/07/31 07:45:31;;;;;;;4.77;2.97;;;29.80;85.00;;;;;;4957955;28;20312;-76
2022/07/31 07:47:56;;;;;;;5.87;3.00;;;29.70;84.50;;;;;;4954853;28;20182;-76
2022/07/31 07:50:22;;;;;;;10.00;3.40;;;29.70;86.00;;;;;;4954153;28;20189;-78
2022/07/31 07:52:48;;;;;;;4.95;2.97;;;30.20;83.70;;;;;;4954967;29;20676;-78
2022/07/31 07:55:13;;;;;;;5.03;3.00;;;30.00;84.60;;;;;;4955980;29;20753;-79
2022/07/31 07:57:38;;;;;;;9.93;2.97;;;29.50;87.20;;;;;;4954423;29;20178;-78
2022/07/31 08:00:07;;;;;;;4.17;2.50;;;30.70;82.70;;;;;;4954334;29;20807;-77
2022/07/31 08:02:32;;;;;;;10.63;2.57;;;30.70;82.30;;;;;;4956607;28;20191;-76
2022/07/31 08:04:59;;;;;;;4.63;2.90;;;30.50;83.20;;;;;;4954307;28;20232;-77
2022/07/31 08:07:35;;;;;;;5.20;2.80;;;30.30;82.90;;;;;;4954823;28;20182;-77
2022/07/31 08:10:01;;;;;;;4.40;2.80;;;31.00;80.90;;;;;;4961136;28;20204;-76
2022/07/31 08:12:27;;;;;;;8.80;2.30;;;30.40;81.50;;;;;;4964273;28;20471;-79
2022/07/31 08:14:53;;;;;;;3.30;2.20;;;30.60;80.40;;;;;;4975860;28;20977;-78
2022/07/31 08:17:19;;;;;;;8.20;2.77;;;30.80;81.40;;;;;;4976572;28;20221;-79
2022/07/31 08:19:45;;;;;;;3.53;2.43;;;31.00;80.00;;;;;;4967264;28;20210;-79
2022/07/31 08:22:11;;;;;;;12.43;2.20;;;30.80;80.00;;;;;;4956254;28;20465;-80
2022/07/31 08:24:36;;;;;;;5.67;2.40;;;30.80;80.00;;;;;;4947340;29;20430;-79
2022/07/31 08:29:46;;;;;;;5.50;2.30;;;30.20;82.10;;;;;;4947286;28;20288;-78
2022/07/31 08:32:12;;;;;;;6.67;2.10;;;30.90;80.70;;;;;;4958381;28;20562;-79
2022/07/31 08:34:38;;;;;;;6.53;2.13;;;31.00;79.50;;;;;;4966125;28;20210;-79
2022/07/31 08:37:05;;;;;;;2.23;2.03;;;31.00;82.50;;;;;;4948465;28;20217;-78
2022/07/31 08:39:31;;;;;;;13.03;3.00;;;31.10;78.60;;;;;;4948411;28;20418;-77
2022/07/31 08:41:56;;;;;;;4.63;2.20;;;30.50;81.50;;;;;;4955645;28;20824;-78
2022/07/31 08:44:22;;;;;;;9.60;2.70;;;30.80;80.60;;;;;;4954715;28;20217;-79
2022/07/31 08:46:48;;;;;;;5.00;2.40;;;30.80;79.80;;;;;;4952770;28;20725;-78
2022/07/31 08:49:16;;;;;;;4.03;2.63;;;30.40;79.00;;;;;;4949546;28;20198;-79
2022/07/31 08:51:43;;;;;;;8.47;3.57;;;30.30;78.70;;;;;;4943882;28;20198;-78
2022/07/31 08:54:10;;;;;;;3.73;2.93;;;30.20;82.00;;;;;;4939047;29;20970;-76
2022/07/31 08:56:36;;;;;;;7.60;2.87;;;29.30;83.30;;;;;;4934476;29;20415;-76
2022/07/31 08:59:04;;;;;;;7.77;3.37;;;29.60;84.50;;;;;;4943768;28;20505;-75
2022/07/31 09:01:32;;;;;;;4.23;3.23;;;28.70;83.20;;;;;;4949029;28;20465;-76
2022/07/31 09:03:58;;;;;;;5.70;3.00;;;28.70;86.00;;;;;;4945583;29;20432;-77
2022/07/31 09:06:23;;;;;;;5.73;2.60;;;29.30;85.90;;;;;;4947453;28;20874;-76
2022/07/31 09:08:49;;;;;;;7.20;3.33;;;30.10;81.10;;;;;;4943014;28;20434;-77
2022/07/31 09:11:15;;;;;;;7.70;3.70;;;29.10;82.10;;;;;;4947142;29;20205;-76
2022/07/31 09:13:55;;;;;;;5.73;3.20;;;28.50;88.50;;;;;;4953272;29;20224;-76
2022/07/31 09:16:21;;;;;;;6.80;2.90;;;29.30;84.40;;;;;;4945001;29;20333;-76
2022/07/31 09:18:56;;;;;;;4.80;3.07;;;29.50;83.80;;;;;;4949492;29;20880;-76
2022/07/31 09:21:22;;;;;;;6.30;3.43;;;29.70;83.60;;;;;;4942001;29;20698;-78
2022/07/31 09:23:48;;;;;;;7.20;3.03;;;30.10;82.60;;;;;;4944487;29;20419;-76
2022/07/31 09:26:14;;;;;;;4.60;3.43;;;29.90;82.10;;;;;;4946492;29;20262;-75
2022/07/31 09:28:42;;;;;;;3.70;3.00;;;29.20;82.30;;;;;;4946178;29;20314;-76
2022/07/31 09:31:09;;;;;;;5.27;3.30;;;28.20;87.20;;;;;;4949475;28;20458;-75
2022/07/31 09:33:39;;;;;;;5.03;3.00;;;27.30;88.60;;;;;;4953510;29;20442;-77
2022/07/31 09:36:05;;;;;;;8.33;3.47;;;27.40;87.80;;;;;;4942265;28;20787;-75
2022/07/31 09:38:33;;;;;;;6.93;4.07;;;26.80;87.50;;;;;;4945656;29;20941;-75
2022/07/31 09:41:11;;;;;;;5.27;3.70;;;27.60;90.50;;;;;;4951978;28;20454;-75
2022/07/31 09:43:38;;;;;;;4.97;3.80;;;28.60;87.20;;;;;;4942054;29;20418;-76
2022/07/31 09:46:05;;;;;;;10.40;4.00;;;28.40;85.30;;;;;;4937249;29;20450;-75
2022/07/31 09:48:31;;;;;;;4.87;3.20;;;28.00;87.30;;;;;;4936555;29;20426;-76
2022/07/31 09:51:02;;;;;;;6.83;3.73;;;28.30;88.60;;;;;;4936823;29;20431;-76
2022/07/31 09:53:39;;;;;;;6.90;3.53;;;28.80;86.90;;;;;;4947688;29;20201;-73
2022/07/31 09:56:06;;;;;;;4.63;3.90;;;28.70;86.10;;;;;;4954208;28;20452;-76
2022/07/31 09:58:32;;;;;;;8.70;3.37;;;28.70;87.50;;;;;;4960912;28;20478;-76
2022/07/31 10:01:00;;;;;;;8.03;3.70;;;29.20;84.80;;;;;;4964050;28;20456;-76
2022/07/31 10:03:26;;;;;;;5.83;3.27;;;29.10;85.00;;;;;;4955851;28;20178;-76
2022/07/31 10:05:54;;;;;;;5.27;3.53;;;28.50;85.70;;;;;;4955796;28;20430;-76
2022/07/31 10:08:20;;;;;;;6.40;4.03;;;27.60;88.10;;;;;;4971057;28;20296;-76
2022/07/31 10:10:48;;;;;;;3.87;3.53;;;28.80;88.70;;;;;;4956668;28;20464;-76
2022/07/31 10:13:18;;;;;;;6.33;3.10;;;28.10;85.00;;;;;;4954451;28;20414;-76
2022/07/31 10:15:47;;;;;;;4.90;3.17;;;27.30;87.30;;;;;;4955896;28;20469;-76
2022/07/31 10:18:16;;;;;;;4.83;3.10;;;26.70;89.30;;;;;;4955033;28;20438;-76
2022/07/31 10:20:47;;;;;;;7.20;3.20;;;26.50;91.70;;;;;;4955851;28;20426;-76
2022/07/31 10:23:22;;;;;;;4.03;3.43;;;26.00;91.80;;;;;;4955966;28;20402;-76
2022/07/31 10:25:51;;;;;;;10.70;3.33;;;26.30;96.30;;;;;;4955521;28;20393;-75
2022/07/31 10:28:16;;;;;;;5.33;3.60;;;27.20;91.30;;;;;;4954939;28;20449;-76
2022/07/31 10:30:44;;;;;;;7.63;3.67;;;28.40;89.30;;;;;;4955535;29;20819;-77
2022/07/31 10:33:10;;;;;;;4.27;3.17;;;28.80;85.70;;;;;;4955432;29;20181;-77
2022/07/31 10:35:43;;;;;;;6.10;2.83;;;28.50;81.70;;;;;;4947540;29;20828;-76
2022/07/31 10:38:19;;;;;;;3.03;2.40;;;28.50;85.50;;;;;;4966631;28;20175;-76
2022/07/31 12:00:30;;;;;;;5.40;2.17;;;;;;;;;;4979973;28;20963;-77
2022/07/31 12:02:57;;;;;;;7.17;2.47;;;28.90;81.60;;;;;;4984896;28;20413;-77
2022/07/31 12:05:22;;;;;;;6.10;1.73;;;28.80;75.40;;;;;;4983168;28;20178;-77
2022/07/31 12:07:48;;;;;;;3.03;1.63;;;28.50;78.70;;;;;;4973066;28;20468;-77
2022/07/31 12:10:14;;;;;;;5.77;2.00;;;28.50;79.80;;;;;;4986117;28;20184;-77
2022/07/31 12:12:41;;;;;;;4.80;1.90;;;28.10;79.70;;;;;;4974361;28;20189;-77
2022/07/31 12:15:33;;;;;;;5.30;2.37;;;28.40;80.80;;;;;;4973749;28;20524;-76
2022/07/31 12:18:01;;;;;;;10.43;2.13;;;28.20;82.20;;;;;;4972406;28;20488;-78
2022/07/31 12:20:29;;;;;;;10.13;2.10;;;28.60;82.50;;;;;;4973975;28;20546;-78
2022/07/31 12:22:58;;;;;;;8.20;1.93;;;29.40;79.40;;;;;;4974269;28;20503;-79
2022/07/31 12:25:24;;;;;;;2.13;1.90;;;29.40;76.80;;;;;;4973328;28;20441;-79
2022/07/31 12:27:53;;;;;;;12.67;2.10;;;29.50;75.50;;;;;;4975054;28;20437;-78
2022/07/31 12:30:23;;;;;;;4.23;1.93;;;29.70;77.90;;;;;;4968036;28;20182;-78
2022/07/31 12:32:51;;;;;;;4.93;1.90;;;29.70;78.00;;;;;;4975935;28;20429;-79
2022/07/31 12:35:16;;;;;;;4.73;2.27;;;29.60;76.10;;;;;;4972986;28;20840;-77
2022/07/31 12:37:47;;;;;;;3.73;1.83;;;29.50;74.90;;;;;;4972827;28;20417;-77
2022/07/31 12:40:24;;;;;;;3.80;2.10;;;29.30;77.70;;;;;;4977638;28;20176;-77
2022/07/31 12:42:49;;;;;;;4.67;1.90;;;29.00;78.40;;;;;;4991021;28;20419;-78
2022/07/31 12:45:15;;;;;;;2.50;1.90;;;29.50;77.50;;;;;;4992439;28;20412;-77
2022/07/31 12:47:41;;;;;;;2.63;1.90;;;30.10;74.60;;;;;;4992554;28;20173;-77
2022/07/31 12:50:07;;;;;;;5.13;1.87;;;30.10;75.40;;;;;;4992521;28;20176;-77
2022/07/31 12:52:33;;;;;;;6.27;2.00;;;29.40;77.40;;;;;;4992113;28;20201;-77
2022/07/31 12:55:01;;;;;;;6.90;1.40;;;29.20;77.50;;;;;;4993339;28;20207;-77
2022/07/31 12:57:27;;;;;;;2.60;1.37;;;28.60;75.90;;;;;;4993966;28;20427;-78
2022/07/31 12:59:53;;;;;;;3.10;1.10;;;28.90;77.20;;;;;;4993981;28;20412;-77
2022/07/31 13:02:18;;;;;;;3.37;1.40;;;28.50;75.00;;;;;;4992646;28;20447;-77
2022/07/31 13:04:44;;;;;;;2.23;1.33;;;28.90;77.20;;;;;;4991550;28;20168;-77
2022/07/31 13:07:09;;;;;;;4.10;1.67;;;28.70;74.50;;;;;;4992791;28;20208;-77
2022/07/31 13:09:35;;;;;;;4.00;1.63;;;27.70;75.60;;;;;;4991959;28;20711;-77
2022/07/31 13:12:00;;;;;;;1.83;1.70;;;27.20;76.80;;;;;;4992335;28;20188;-78
2022/07/31 13:14:27;;;;;;;4.40;1.53;;;26.50;78.40;;;;;;4993488;28;20577;-77
2022/07/31 13:16:53;;;;;;;2.23;1.53;;;26.10;79.90;;;;;;4993508;28;20172;-77
2022/07/31 13:19:20;;;;;;;2.77;1.37;;;25.90;80.40;;;;;;4993321;28;20428;-77
2022/07/31 13:21:47;;;;;;;4.40;1.50;;;25.80;82.30;;;;;;4993072;28;20446;-77
2022/07/31 13:24:13;;;;;;;3.40;1.70;;;25.80;82.30;;;;;;4994236;28;20531;-78
2022/07/31 13:26:40;;;;;;;2.37;1.40;;;25.90;80.50;;;;;;4993023;28;20478;-77
2022/07/31 13:29:06;;;;;;;3.87;1.17;;;25.80;80.70;;;;;;4995371;28;20259;-77
2022/07/31 13:31:32;;;;;;;3.10;1.40;;;25.40;81.20;;;;;;4994780;28;20480;-77
2022/07/31 13:33:57;;;;;;;2.30;1.50;;;25.40;81.20;;;;;;4994259;28;20180;-77
2022/07/31 13:36:24;;;;;;;2.30;1.43;;;25.10;83.20;;;;;;4991236;28;20176;-76
2022/07/31 13:38:50;;;;;;;6.03;1.60;;;25.10;83.20;;;;;;4993197;28;20684;-76
2022/07/31 13:41:26;;;;;;;3.00;1.80;;;25.40;85.00;;;;;;4991927;28;20444;-75
2022/07/31 13:43:53;;;;;;;3.83;1.60;;;25.50;84.30;;;;;;4994309;28;20176;-76
2022/07/31 13:46:20;;;;;;;2.70;1.67;;;25.50;82.20;;;;;;4992880;28;20503;-77
2022/07/31 13:48:46;;;;;;;4.87;1.70;;;25.30;83.70;;;;;;4994849;28;20419;-77
2022/07/31 13:51:12;;;;;;;2.03;1.40;;;25.10;83.80;;;;;;4994564;28;20483;-77
2022/07/31 13:53:38;;;;;;;5.00;1.70;;;25.00;86.20;;;;;;4998223;28;20405;-77
2022/07/31 13:56:04;;;;;;;7.73;1.77;;;25.00;86.10;;;;;;4994226;28;20216;-77
2022/07/31 13:58:29;;;;;;;5.50;1.77;;;25.40;86.50;;;;;;4996533;28;20174;-77
2022/07/31 14:00:55;;;;;;;2.73;1.50;;;26.20;84.20;;;;;;4999016;28;20208;-77
2022/07/31 14:03:21;;;;;;;5.77;1.70;;;26.50;83.60;;;;;;4997459;28;20255;-76
2022/07/31 14:05:48;;;;;;;2.60;1.50;;;26.90;80.90;;;;;;4975001;28;20564;-77
2022/07/31 14:08:13;;;;;;;4.60;1.50;;;27.10;82.60;;;;;;4968036;28;20425;-77
2022/07/31 14:10:39;;;;;;;1.83;1.40;;;27.40;77.10;;;;;;4990640;28;20455;-78
2022/07/31 14:13:04;;;;;;;1.40;1.20;;;27.50;78.40;;;;;;4995207;28;20263;-78
2022/07/31 14:15:30;;;;;;;3.33;1.37;;;27.80;75.40;;;;;;4995487;28;20243;-78
2022/07/31 14:17:57;;;;;;;11.43;2.03;;;27.90;80.70;;;;;;4994166;28;20196;-78
2022/07/31 14:20:22;;;;;;;6.90;1.83;;;28.00;74.90;;;;;;4977587;28;20588;-79
2022/07/31 14:22:48;;;;;;;7.33;1.63;;;28.00;74.60;;;;;;4957450;28;20415;-79
2022/07/31 14:25:13;;;;;;;2.77;1.43;;;27.80;76.30;;;;;;4958220;28;20210;-79
2022/07/31 14:27:39;;;;;;;2.70;1.30;;;27.70;75.00;;;;;;4958403;28;20206;-79
2022/07/31 14:30:06;;;;;;;4.77;1.60;;;27.50;76.90;;;;;;4958626;28;20878;-79
2022/07/31 14:32:31;;;;;;;3.87;1.73;;;27.50;77.40;;;;;;4966212;28;20205;-79
2022/07/31 14:34:57;;;;;;;4.07;1.30;;;27.20;78.90;;;;;;4974201;28;20484;-78
2022/07/31 14:37:23;;;;;;;2.60;1.40;;;26.80;77.30;;;;;;4958269;29;20177;-79
2022/07/31 14:39:48;;;;;;;6.07;1.63;;;26.50;77.50;;;;;;4960937;28;20225;-78
2022/07/31 14:42:14;;;;;;;2.90;1.30;;;26.70;79.30;;;;;;4989515;28;20205;-77
2022/07/31 14:44:40;;;;;;;4.83;1.30;;;27.00;78.00;;;;;;4964475;28;20209;-78
2022/07/31 14:47:07;;;;;;;2.63;1.30;;;26.30;77.00;;;;;;4973154;28;20173;-79
2022/07/31 14:49:33;;;;;;;3.67;1.53;;;25.90;81.40;;;;;;4956549;28;20414;-79
2022/07/31 14:51:58;;;;;;;4.10;1.13;;;25.80;82.80;;;;;;4957108;28;20445;-79
2022/07/31 14:54:24;;;;;;;5.90;1.53;;;25.70;81.50;;;;;;4957338;28;20252;-79
2022/07/31 14:56:49;;;;;;;4.83;1.30;;;25.60;80.90;;;;;;4956924;28;20171;-79
2022/07/31 14:59:15;;;;;;;7.03;1.70;;;25.50;81.40;;;;;;4955997;28;20184;-79
2022/07/31 15:01:40;;;;;;;2.70;1.63;;;25.20;82.00;;;;;;4955200;29;20206;-79
2022/07/31 15:04:06;;;;;;;4.30;1.40;;;24.90;83.70;;;;;;4956730;28;20182;-79
2022/07/31 15:06:32;;;;;;;2.30;1.40;;;24.90;82.40;;;;;;4954731;28;20185;-79
2022/07/31 15:08:57;;;;;;;6.17;1.47;;;25.70;84.10;;;;;;4956857;28;20167;-80
2022/07/31 15:11:23;;;;;;;5.33;1.50;;;26.70;82.20;;;;;;4956159;28;20186;-79
2022/07/31 15:13:48;;;;;;;2.00;1.50;;;27.10;80.20;;;;;;4958586;28;20174;-79
2022/07/31 15:16:14;;;;;;;2.40;1.40;;;27.10;77.60;;;;;;4958670;28;20181;-78
2022/07/31 15:18:39;;;;;;;4.60;1.53;;;27.20;77.60;;;;;;4962698;28;20174;-78
2022/07/31 15:21:05;;;;;;;2.33;1.20;;;27.10;80.30;;;;;;4985963;28;20229;-79
2022/07/31 15:23:30;;;;;;;6.93;1.57;;;27.30;78.30;;;;;;4971337;28;20269;-78
2022/07/31 15:25:56;;;;;;;8.43;1.90;;;26.60;77.30;;;;;;4974165;28;20559;-78
2022/07/31 15:28:21;;;;;;;2.30;1.57;;;25.90;79.30;;;;;;4960026;28;20194;-76
2022/07/31 15:30:47;;;;;;;3.23;1.63;;;25.50;80.80;;;;;;4955747;28;20882;-76
2022/07/31 15:33:12;;;;;;;5.00;1.40;;;25.30;83.00;;;;;;4970595;28;20182;-78
2022/07/31 15:35:38;;;;;;;3.60;1.43;;;25.00;83.00;;;;;;4965328;28;20230;-79
2022/07/31 15:38:03;;;;;;;5.77;1.40;;;25.10;84.10;;;;;;4965384;28;20218;-77
2022/07/31 15:40:29;;;;;;;3.70;2.10;;;25.10;83.40;;;;;;4967282;28;20186;-75
2022/07/31 15:42:54;;;;;;;1.77;1.67;;;25.00;83.50;;;;;;4964123;28;20249;-77
2022/07/31 15:45:20;;;;;;;5.03;2.00;;;24.90;84.10;;;;;;4970261;28;20626;-77
2022/07/31 15:47:47;;;;;;;2.03;1.43;;;25.00;85.10;;;;;;4954426;28;20333;-76
2022/07/31 15:50:15;;;;;;;2.90;1.50;;;25.60;84.30;;;;;;4971696;28;20240;-76
2022/07/31 15:52:41;;;;;;;4.43;1.50;;;26.00;83.00;;;;;;4959965;28;20468;-76
2022/07/31 15:55:08;;;;;;;2.37;1.53;;;26.20;81.50;;;;;;4956740;28;20464;-77
2022/07/31 15:57:33;;;;;;;2.03;1.63;;;26.30;82.10;;;;;;4960422;28;20453;-77
2022/07/31 15:59:59;;;;;;;2.57;1.70;;;26.40;79.80;;;;;;4973957;28;20416;-77
2022/07/31 16:02:25;;;;;;;3.40;2.00;;;26.50;80.10;;;;;;4988780;28;20219;-77
2022/07/31 16:04:52;;;;;;;6.63;2.20;;;26.50;82.20;;;;;;4984605;28;20181;-76
2022/07/31 16:07:18;;;;;;;2.90;1.87;;;26.10;81.40;;;;;;4962564;28;20555;-77
2022/07/31 16:09:43;;;;;;;2.80;1.93;;;25.70;82.40;;;;;;4982607;28;20515;-76
2022/07/31 16:12:09;;;;;;;4.10;2.10;;;25.20;82.10;;;;;;4984501;28;20205;-74
2022/07/31 16:14:35;;;;;;;5.47;2.43;;;25.10;83.70;;;;;;4958961;28;20242;-74
2022/07/31 16:17:00;;;;;;;3.33;2.00;;;25.00;84.10;;;;;;4958630;28;20178;-76
2022/07/31 16:19:26;;;;;;;3.20;1.70;;;25.00;84.50;;;;;;4964517;28;20577;-76
2022/07/31 16:21:53;;;;;;;2.73;2.10;;;25.00;86.10;;;;;;4966662;28;20209;-76
2022/07/31 16:24:19;;;;;;;1.70;1.60;;;24.90;85.20;;;;;;4973095;28;20174;-75
2022/07/31 16:26:45;;;;;;;1.93;1.50;;;24.80;86.30;;;;;;4973074;28;20909;-76
2022/07/31 16:29:10;;;;;;;6.20;1.90;;;24.80;86.10;;;;;;4965436;28;20429;-76
2022/07/31 16:31:36;;;;;;;3.80;2.77;;;24.80;86.60;;;;;;4963180;28;20285;-76
2022/07/31 16:34:01;;;;;;;4.43;1.90;;;24.70;86.10;;;;;;4961199;28;20240;-76
2022/07/31 16:36:27;;;;;;;1.83;1.70;;;24.60;85.70;;;;;;4969332;28;20189;-75
2022/07/31 16:38:53;;;;;;;5.13;1.80;;;24.50;87.20;;;;;;4982521;28;20250;-75
2022/07/31 16:59:51;;;;;;;6.50;1.90;;;24.70;88.20;;;;;;4747314;26;20477;-75
2022/07/31 17:13:13;;;;;;;3.43;1.63;;;25.20;87.50;;;;;;4871164;29;20461;-75
2022/07/31 17:15:40;;;;;;;4.60;2.07;;;;;;;;;;4896775;29;20483;-77
2022/07/31 17:18:05;;;;;;;2.93;1.90;;;25.40;85.10;;;;;;4934212;29;20415;-77
2022/07/31 17:20:31;;;;;;;3.00;2.20;;;25.30;83.50;;;;;;4934365;29;20478;-77
2022/07/31 17:22:57;;;;;;;3.20;2.10;;;25.00;86.40;;;;;;4935939;29;20536;-77
2022/07/31 17:25:22;;;;;;;4.47;2.50;;;24.70;86.10;;;;;;4938106;29;20422;-75
2022/07/31 17:27:48;;;;;;;2.10;1.90;;;24.50;87.00;;;;;;4938136;29;20183;-75
2022/07/31 17:30:14;;;;;;;2.77;2.20;;;24.30;87.90;;;;;;4937971;29;20254;-75
2022/07/31 17:32:40;;;;;;;4.87;1.80;;;24.10;87.40;;;;;;4937898;29;20703;-75
2022/07/31 17:35:07;;;;;;;3.03;2.47;;;24.00;89.30;;;;;;4937886;29;20545;-75
2022/07/31 17:37:33;;;;;;;3.97;2.20;;;23.90;87.90;;;;;;4937946;29;20586;-75
2022/07/31 17:39:58;;;;;;;2.70;1.87;;;23.70;89.60;;;;;;4940463;29;20498;-76
2022/07/31 17:42:25;;;;;;;5.47;2.00;;;23.70;88.90;;;;;;4955897;28;20182;-77
2022/07/31 17:44:52;;;;;;;4.07;2.30;;;23.60;89.80;;;;;;4957013;29;20246;-76
2022/07/31 17:47:19;;;;;;;3.30;2.10;;;23.60;91.30;;;;;;4956859;29;20418;-77
2022/07/31 17:49:45;;;;;;;2.27;1.87;;;23.50;90.00;;;;;;4956407;29;20442;-77
2022/07/31 17:52:11;;;;;;;4.93;1.97;;;23.30;91.10;;;;;;4956816;28;20493;-77
2022/07/31 17:54:37;;;;;;;4.60;1.97;;;23.20;91.50;;;;;;4956619;29;20461;-77
2022/07/31 17:57:03;;;;;;;8.30;2.30;;;23.10;92.90;;;;;;4937718;29;20172;-76
2022/07/31 17:59:29;;;;;;;4.40;1.90;;;23.00;93.50;;;;;;4936124;29;20192;-75
2022/07/31 18:01:58;;;;;;;5.33;2.10;;;22.90;93.80;;;;;;4937261;29;20437;-76
2022/07/31 18:04:25;;;;;;;5.30;1.80;;;22.80;95.50;;;;;;4937283;29;20175;-76
2022/07/31 18:06:51;;;;;;;6.97;1.87;;;22.70;94.90;;;;;;4937446;29;20771;-76
2022/07/31 18:09:19;;;;;;;4.70;2.23;;;22.60;95.30;;;;;;4937469;29;20415;-76
2022/07/31 18:11:45;;;;;;;7.37;2.43;;;22.60;96.30;;;;;;4937238;29;20187;-76
2022/07/31 18:14:11;;;;;;;4.00;2.10;;;22.50;96.30;;;;;;4937190;29;20785;-76
2022/07/31 18:16:36;;;;;;;4.90;2.30;;;22.40;96.30;;;;;;4937064;29;20422;-76
2022/07/31 18:19:02;;;;;;;5.03;2.27;;;22.30;96.30;;;;;;4935468;29;20211;-76
2022/07/31 18:21:27;;;;;;;3.20;2.27;;;22.20;96.30;;;;;;4937019;29;20199;-76
2022/07/31 18:23:53;;;;;;;6.80;2.77;;;22.20;96.30;;;;;;4937248;29;20549;-76
2022/07/31 18:26:18;;;;;;;3.23;2.00;;;22.10;96.30;;;;;;4935673;29;20175;-76
2022/07/31 18:28:44;;;;;;;2.13;1.93;;;22.00;96.30;;;;;;4936809;29;20175;-76
2022/07/31 18:31:09;;;;;;;6.70;2.40;;;21.90;96.30;;;;;;4936442;29;20215;-74
2022/07/31 18:33:36;;;;;;;12.53;2.13;;;21.90;96.30;;;;;;4936522;28;20187;-76
2022/07/31 18:36:02;;;;;;;5.23;2.40;;;21.80;96.30;;;;;;4936633;29;20208;-76
2022/07/31 18:38:27;;;;;;;3.17;2.40;;;21.80;96.30;;;;;;4937684;29;20420;-77
2022/07/31 18:40:54;;;;;;;2.70;2.27;;;21.70;96.30;;;;;;4946179;28;20253;-76
2022/07/31 18:43:20;;;;;;;15.73;2.30;;;21.60;96.30;;;;;;4935832;29;20656;-75
2022/07/31 18:45:45;;;;;;;2.87;1.90;;;21.60;96.30;;;;;;4933901;29;20407;-76